LFLY 181730Z AUTO 33010KT CAVOK 23/15 Q1012 TEMPO VRB15G30KT 2000 TSRA BKN014 BKN037CB

ElémentsDécodage
LFLY Station météo située sur l'aérodrome de LYON Bron
181730Z émis le 18 du mois à 17h30 UTC
AUTO Bulletin édité par un automate
33010KT vent du 330°, 10 noeuds
CAVOK Ceiling And Visibility OK
- Visibilité de 10 Km ou plus
- Pas de nuage au-dessous de 1500m ou au-dessous de l'altitude minimale du secteur la plus élevée (si>1500m) et absence de CB
- pas de temps présent significatif
23/15 température 23°C, point de rosée 15°C
 soit une humidité relative de 61%
Q1012 la pression au niveau de la mer (QNH) est de 1012 hPa
TEMPO fluctuation temporaire prévue
VRB15G30KT vent de direction variable, moyenne: 15 noeuds, avec rafales à 30 noeuds
2000 visibilité horizontale de 2000 mètres
TSRA pluie d'orage
BKN014 nuages morcelés (5/8 à 7/8) à 1400 pieds
BKN037CB nuages morcelés (5/8 à 7/8) à 3700 pieds
 présence de cumulonimbus